sensor_id;sensor_type;location;lat;lon;timestamp;pressure;altitude;pressure_sealevel;temperature;humidity
47913;BME280;33676;51.006;17.180;2023-08-08T00:02:18;99798.84;;;14.90;91.21
47913;BME280;33676;51.006;17.180;2023-08-08T00:04:46;99800.54;;;14.90;91.17
47913;BME280;33676;51.006;17.180;2023-08-08T00:07:14;99795.86;;;14.92;91.12
47913;BME280;33676;51.006;17.180;2023-08-08T00:09:43;99794.23;;;14.92;91.15
47913;BME280;33676;51.006;17.180;2023-08-08T00:12:11;99802.17;;;14.92;91.01
47913;BME280;33676;51.006;17.180;2023-08-08T00:14:39;99802.49;;;14.92;90.96
47913;BME280;33676;51.006;17.180;2023-08-08T00:17:08;99802.16;;;14.92;90.84
47913;BME280;33676;51.006;17.180;2023-08-08T00:19:36;99804.14;;;14.92;90.94
47913;BME280;33676;51.006;17.180;2023-08-08T00:22:05;99808.06;;;14.91;90.74
47913;BME280;33676;51.006;17.180;2023-08-08T00:24:34;99807.80;;;14.90;90.73
47913;BME280;33676;51.006;17.180;2023-08-08T00:27:03;99809.38;;;14.90;90.68
47913;BME280;33676;51.006;17.180;2023-08-08T00:29:31;99813.27;;;14.90;90.55
47913;BME280;33676;51.006;17.180;2023-08-08T00:32:00;99817.56;;;14.89;90.62
47913;BME280;33676;51.006;17.180;2023-08-08T00:34:29;99806.92;;;14.87;90.58
47913;BME280;33676;51.006;17.180;2023-08-08T00:36:57;99816.58;;;14.83;90.31
47913;BME280;33676;51.006;17.180;2023-08-08T00:39:26;99810.16;;;14.81;90.30
47913;BME280;33676;51.006;17.180;2023-08-08T00:41:54;99811.95;;;14.77;90.23
47913;BME280;33676;51.006;17.180;2023-08-08T00:44:23;99812.66;;;14.74;90.21
47913;BME280;33676;51.006;17.180;2023-08-08T00:46:51;99812.67;;;14.69;90.15
47913;BME280;33676;51.006;17.180;2023-08-08T00:49:20;99820.55;;;14.64;90.07
47913;BME280;33676;51.006;17.180;2023-08-08T00:51:49;99824.05;;;14.59;90.09
47913;BME280;33676;51.006;17.180;2023-08-08T00:54:18;99820.19;;;14.53;90.06
47913;BME280;33676;51.006;17.180;2023-08-08T00:56:46;99817.63;;;14.49;90.02
47913;BME280;33676;51.006;17.180;2023-08-08T00:59:15;99815.73;;;14.46;90.07
47913;BME280;33676;51.006;17.180;2023-08-08T01:01:47;99814.92;;;14.41;90.02
47913;BME280;33676;51.006;17.180;2023-08-08T01:04:17;99814.25;;;14.38;90.07
47913;BME280;33676;51.006;17.180;2023-08-08T01:09:59;99809.66;;;14.31;90.02
47913;BME280;33676;51.006;17.180;2023-08-08T01:12:38;99812.39;;;14.26;90.08
47913;BME280;33676;51.006;17.180;2023-08-08T01:15:09;99813.90;;;14.21;90.01
47913;BME280;33676;51.006;17.180;2023-08-08T01:17:39;99817.59;;;14.17;89.86
47913;BME280;33676;51.006;17.180;2023-08-08T01:20:09;99820.61;;;14.11;89.99
47913;BME280;33676;51.006;17.180;2023-08-08T01:23:24;99818.70;;;14.05;89.91
47913;BME280;33676;51.006;17.180;2023-08-08T01:25:55;99827.55;;;13.98;90.00
47913;BME280;33676;51.006;17.180;2023-08-08T01:28:25;99831.27;;;13.92;90.07
47913;BME280;33676;51.006;17.180;2023-08-08T01:30:54;99825.59;;;13.87;90.05
47913;BME280;33676;51.006;17.180;2023-08-08T01:33:23;99824.81;;;13.83;90.07
47913;BME280;33676;51.006;17.180;2023-08-08T01:36:00;99821.30;;;13.78;90.07
47913;BME280;33676;51.006;17.180;2023-08-08T01:38:38;99819.44;;;13.72;90.17
47913;BME280;33676;51.006;17.180;2023-08-08T01:41:09;99822.17;;;13.65;90.15
47913;BME280;33676;51.006;17.180;2023-08-08T01:43:38;99823.83;;;13.59;90.21
47913;BME280;33676;51.006;17.180;2023-08-08T01:46:08;99821.96;;;13.55;90.35
47913;BME280;33676;51.006;17.180;2023-08-08T01:48:37;99818.09;;;13.51;90.60
47913;BME280;33676;51.006;17.180;2023-08-08T01:51:06;99816.65;;;13.47;90.65
47913;BME280;33676;51.006;17.180;2023-08-08T01:53:34;99816.39;;;13.44;90.76
47913;BME280;33676;51.006;17.180;2023-08-08T01:56:02;99817.94;;;13.41;90.67
47913;BME280;33676;51.006;17.180;2023-08-08T01:58:31;99817.82;;;13.37;90.86
47913;BME280;33676;51.006;17.180;2023-08-08T02:00:59;99813.60;;;13.33;90.90
47913;BME280;33676;51.006;17.180;2023-08-08T02:03:28;99811.92;;;13.30;91.05
47913;BME280;33676;51.006;17.180;2023-08-08T02:05:56;99805.98;;;13.26;90.93
47913;BME280;33676;51.006;17.180;2023-08-08T02:08:25;99806.38;;;13.22;90.76
47913;BME280;33676;51.006;17.180;2023-08-08T02:10:54;99806.79;;;13.18;90.83
47913;BME280;33676;51.006;17.180;2023-08-08T02:13:22;99805.05;;;13.14;90.81
47913;BME280;33676;51.006;17.180;2023-08-08T02:15:51;99812.62;;;13.10;91.00
47913;BME280;33676;51.006;17.180;2023-08-08T02:18:21;99812.64;;;13.06;91.07
47913;BME280;33676;51.006;17.180;2023-08-08T02:20:49;99811.05;;;13.03;91.13
47913;BME280;33676;51.006;17.180;2023-08-08T02:23:18;99812.33;;;12.99;90.99
47913;BME280;33676;51.006;17.180;2023-08-08T02:25:47;99823.35;;;12.95;91.12
47913;BME280;33676;51.006;17.180;2023-08-08T02:28:15;99822.10;;;12.92;91.13
47913;BME280;33676;51.006;17.180;2023-08-08T02:30:44;99818.07;;;12.88;91.11
47913;BME280;33676;51.006;17.180;2023-08-08T02:33:12;99815.87;;;12.83;91.03
47913;BME280;33676;51.006;17.180;2023-08-08T02:35:41;99816.05;;;12.80;91.04
47913;BME280;33676;51.006;17.180;2023-08-08T02:38:09;99813.32;;;12.75;91.18
47913;BME280;33676;51.006;17.180;2023-08-08T02:42:31;99815.79;;;12.73;91.33
47913;BME280;33676;51.006;17.180;2023-08-08T02:44:59;99817.11;;;12.67;91.32
47913;BME280;33676;51.006;17.180;2023-08-08T02:47:28;99818.54;;;12.63;91.49
47913;BME280;33676;51.006;17.180;2023-08-08T02:49:56;99819.23;;;12.61;91.52
47913;BME280;33676;51.006;17.180;2023-08-08T02:52:24;99817.25;;;12.57;91.72
47913;BME280;33676;51.006;17.180;2023-08-08T02:54:53;99814.68;;;12.55;91.81
47913;BME280;33676;51.006;17.180;2023-08-08T02:57:22;99823.08;;;12.53;91.95
47913;BME280;33676;51.006;17.180;2023-08-08T02:59:50;99823.83;;;12.53;92.12
47913;BME280;33676;51.006;17.180;2023-08-08T03:02:19;99819.15;;;12.52;92.30
47913;BME280;33676;51.006;17.180;2023-08-08T03:04:47;99824.33;;;12.51;92.31
47913;BME280;33676;51.006;17.180;2023-08-08T03:07:16;99826.48;;;12.51;92.47
47913;BME280;33676;51.006;17.180;2023-08-08T03:09:44;99831.98;;;12.50;92.48
47913;BME280;33676;51.006;17.180;2023-08-08T03:12:13;99837.04;;;12.50;92.61
47913;BME280;33676;51.006;17.180;2023-08-08T03:14:41;99835.79;;;12.51;92.47
47913;BME280;33676;51.006;17.180;2023-08-08T03:17:10;99839.39;;;12.50;92.43
47913;BME280;33676;51.006;17.180;2023-08-08T03:19:38;99841.08;;;12.48;92.44
47913;BME280;33676;51.006;17.180;2023-08-08T03:22:07;99844.27;;;12.48;92.56
47913;BME280;33676;51.006;17.180;2023-08-08T03:24:35;99844.19;;;12.47;92.55
47913;BME280;33676;51.006;17.180;2023-08-08T03:27:04;99842.83;;;12.47;92.47
47913;BME280;33676;51.006;17.180;2023-08-08T03:29:32;99848.27;;;12.47;92.45
47913;BME280;33676;51.006;17.180;2023-08-08T03:32:01;99846.60;;;12.46;92.38
47913;BME280;33676;51.006;17.180;2023-08-08T03:34:30;99850.55;;;12.45;92.26
47913;BME280;33676;51.006;17.180;2023-08-08T03:36:59;99856.90;;;12.43;92.22
47913;BME280;33676;51.006;17.180;2023-08-08T03:39:28;99857.77;;;12.41;92.08
47913;BME280;33676;51.006;17.180;2023-08-08T03:41:56;99858.35;;;12.39;92.06
47913;BME280;33676;51.006;17.180;2023-08-08T03:44:25;99857.43;;;12.37;92.10
47913;BME280;33676;51.006;17.180;2023-08-08T03:46:53;99868.06;;;12.36;92.15
47913;BME280;33676;51.006;17.180;2023-08-08T03:49:36;99868.79;;;12.36;91.99
47913;BME280;33676;51.006;17.180;2023-08-08T03:52:05;99869.42;;;12.36;92.04
47913;BME280;33676;51.006;17.180;2023-08-08T03:54:34;99871.63;;;12.37;92.14
47913;BME280;33676;51.006;17.180;2023-08-08T03:57:02;99876.64;;;12.38;92.12
47913;BME280;33676;51.006;17.180;2023-08-08T03:59:31;99880.35;;;12.39;92.19
47913;BME280;33676;51.006;17.180;2023-08-08T04:01:59;99881.62;;;12.41;92.15
47913;BME280;33676;51.006;17.180;2023-08-08T04:04:28;99881.04;;;12.41;92.06
47913;BME280;33676;51.006;17.180;2023-08-08T04:06:57;99883.84;;;12.44;91.82
47913;BME280;33676;51.006;17.180;2023-08-08T04:09:26;99882.00;;;12.44;91.83
47913;BME280;33676;51.006;17.180;2023-08-08T04:11:54;99884.02;;;12.45;91.77
47913;BME280;33676;51.006;17.180;2023-08-08T04:14:22;99888.58;;;12.47;92.04
47913;BME280;33676;51.006;17.180;2023-08-08T04:16:51;99885.40;;;12.49;91.89
47913;BME280;33676;51.006;17.180;2023-08-08T04:19:19;99885.92;;;12.51;91.94
47913;BME280;33676;51.006;17.180;2023-08-08T04:21:48;99886.14;;;12.54;91.79
47913;BME280;33676;51.006;17.180;2023-08-08T04:24:16;99888.38;;;12.56;91.89
47913;BME280;33676;51.006;17.180;2023-08-08T04:26:45;99894.11;;;12.59;91.92
47913;BME280;33676;51.006;17.180;2023-08-08T04:29:13;99896.76;;;12.63;91.82
47913;BME280;33676;51.006;17.180;2023-08-08T04:31:41;99901.73;;;12.66;91.90
47913;BME280;33676;51.006;17.180;2023-08-08T04:34:10;99902.47;;;12.71;92.06
47913;BME280;33676;51.006;17.180;2023-08-08T04:36:38;99908.71;;;12.79;92.30
47913;BME280;33676;51.006;17.180;2023-08-08T04:39:07;99910.10;;;12.91;92.34
47913;BME280;33676;51.006;17.180;2023-08-08T04:41:35;99916.25;;;13.02;92.52
47913;BME280;33676;51.006;17.180;2023-08-08T04:44:04;99917.55;;;13.14;92.60
47913;BME280;33676;51.006;17.180;2023-08-08T04:46:32;99918.83;;;13.25;92.89
47913;BME280;33676;51.006;17.180;2023-08-08T04:49:01;99922.23;;;13.34;92.79
47913;BME280;33676;51.006;17.180;2023-08-08T04:51:29;99927.63;;;13.41;92.66
47913;BME280;33676;51.006;17.180;2023-08-08T04:53:58;99925.23;;;13.46;92.57
47913;BME280;33676;51.006;17.180;2023-08-08T04:56:26;99928.30;;;13.51;92.30
47913;BME280;33676;51.006;17.180;2023-08-08T04:58:57;99928.70;;;13.55;92.32
47913;BME280;33676;51.006;17.180;2023-08-08T05:01:26;99932.77;;;13.61;92.18
47913;BME280;33676;51.006;17.180;2023-08-08T05:03:54;99933.83;;;13.66;92.07
47913;BME280;33676;51.006;17.180;2023-08-08T05:06:24;99934.52;;;13.71;92.11
47913;BME280;33676;51.006;17.180;2023-08-08T05:08:52;99933.31;;;13.78;91.96
47913;BME280;33676;51.006;17.180;2023-08-08T05:11:21;99933.05;;;13.84;91.78
47913;BME280;33676;51.006;17.180;2023-08-08T05:13:50;99932.67;;;13.92;91.97
47913;BME280;33676;51.006;17.180;2023-08-08T05:16:18;99934.77;;;14.01;91.83
47913;BME280;33676;51.006;17.180;2023-08-08T05:18:47;99937.33;;;14.13;92.05
47913;BME280;33676;51.006;17.180;2023-08-08T05:21:15;99940.64;;;14.22;92.16
47913;BME280;33676;51.006;17.180;2023-08-08T05:23:43;99944.77;;;14.30;92.07
47913;BME280;33676;51.006;17.180;2023-08-08T05:26:15;99946.83;;;14.38;92.01
47913;BME280;33676;51.006;17.180;2023-08-08T05:28:43;99945.47;;;14.44;91.85
47913;BME280;33676;51.006;17.180;2023-08-08T05:31:12;99948.66;;;14.51;91.71
47913;BME280;33676;51.006;17.180;2023-08-08T05:33:40;99946.52;;;14.58;91.84
47913;BME280;33676;51.006;17.180;2023-08-08T05:36:09;99946.04;;;14.65;91.75
47913;BME280;33676;51.006;17.180;2023-08-08T05:38:38;99951.79;;;14.71;91.75
47913;BME280;33676;51.006;17.180;2023-08-08T05:41:06;99944.70;;;14.75;91.55
47913;BME280;33676;51.006;17.180;2023-08-08T05:43:35;99946.80;;;14.80;91.70
47913;BME280;33676;51.006;17.180;2023-08-08T05:46:03;99943.02;;;14.86;91.61
47913;BME280;33676;51.006;17.180;2023-08-08T05:48:32;99943.10;;;14.92;91.76
47913;BME280;33676;51.006;17.180;2023-08-08T05:51:00;99939.80;;;14.97;91.74
47913;BME280;33676;51.006;17.180;2023-08-08T05:53:32;99942.39;;;14.99;91.64
47913;BME280;33676;51.006;17.180;2023-08-08T05:56:00;99943.23;;;15.00;91.37
47913;BME280;33676;51.006;17.180;2023-08-08T05:58:29;99942.23;;;14.99;91.32
47913;BME280;33676;51.006;17.180;2023-08-08T06:00:57;99946.95;;;14.99;91.17
47913;BME280;33676;51.006;17.180;2023-08-08T06:03:28;99945.95;;;15.02;91.24
47913;BME280;33676;51.006;17.180;2023-08-08T06:05:56;99948.89;;;15.06;91.48
47913;BME280;33676;51.006;17.180;2023-08-08T06:08:25;99948.73;;;15.11;91.63
47913;BME280;33676;51.006;17.180;2023-08-08T06:10:53;99950.45;;;15.15;91.60
47913;BME280;33676;51.006;17.180;2023-08-08T06:13:22;99949.74;;;15.20;91.73
47913;BME280;33676;51.006;17.180;2023-08-08T06:15:50;99950.70;;;15.26;91.84
47913;BME280;33676;51.006;17.180;2023-08-08T06:18:19;99948.81;;;15.31;91.66
47913;BME280;33676;51.006;17.180;2023-08-08T06:20:47;99947.05;;;15.36;91.85
47913;BME280;33676;51.006;17.180;2023-08-08T06:23:16;99949.33;;;15.40;91.78
47913;BME280;33676;51.006;17.180;2023-08-08T06:25:45;99953.35;;;15.45;91.91
47913;BME280;33676;51.006;17.180;2023-08-08T06:28:13;99951.82;;;15.49;91.93
47913;BME280;33676;51.006;17.180;2023-08-08T06:30:41;99954.24;;;15.53;91.47
47913;BME280;33676;51.006;17.180;2023-08-08T06:33:10;99951.25;;;15.58;91.45
47913;BME280;33676;51.006;17.180;2023-08-08T06:35:39;99954.29;;;15.64;91.59
47913;BME280;33676;51.006;17.180;2023-08-08T06:38:07;99957.13;;;15.71;91.49
47913;BME280;33676;51.006;17.180;2023-08-08T06:40:37;99957.36;;;15.79;91.32
47913;BME280;33676;51.006;17.180;2023-08-08T06:43:06;99957.21;;;15.87;91.02
47913;BME280;33676;51.006;17.180;2023-08-08T06:45:34;99950.13;;;15.96;91.23
47913;BME280;33676;51.006;17.180;2023-08-08T06:48:05;99951.45;;;16.08;91.30
47913;BME280;33676;51.006;17.180;2023-08-08T06:50:34;99946.48;;;16.21;91.35
47913;BME280;33676;51.006;17.180;2023-08-08T06:53:04;99948.06;;;16.36;91.06
47913;BME280;33676;51.006;17.180;2023-08-08T06:55:33;99955.91;;;16.52;90.35
47913;BME280;33676;51.006;17.180;2023-08-08T06:58:02;99956.01;;;16.61;89.64
47913;BME280;33676;51.006;17.180;2023-08-08T07:00:31;99951.12;;;16.67;88.63
47913;BME280;33676;51.006;17.180;2023-08-08T07:03:00;99944.46;;;16.76;88.57
47913;BME280;33676;51.006;17.180;2023-08-08T07:05:30;99943.02;;;16.94;88.88
47913;BME280;33676;51.006;17.180;2023-08-08T07:07:59;99944.39;;;17.09;88.58
47913;BME280;33676;51.006;17.180;2023-08-08T07:10:28;99941.09;;;17.17;88.32
47913;BME280;33676;51.006;17.180;2023-08-08T07:12:57;99936.83;;;17.26;87.85
47913;BME280;33676;51.006;17.180;2023-08-08T07:15:26;99934.30;;;17.37;88.05
47913;BME280;33676;51.006;17.180;2023-08-08T07:17:56;99932.77;;;17.49;87.64
47913;BME280;33676;51.006;17.180;2023-08-08T07:20:25;99934.15;;;17.59;86.77
47913;BME280;33676;51.006;17.180;2023-08-08T07:22:53;99932.62;;;17.69;86.19
47913;BME280;33676;51.006;17.180;2023-08-08T07:25:24;99928.20;;;17.77;86.09
47913;BME280;33676;51.006;17.180;2023-08-08T07:27:52;99930.83;;;17.88;86.19
47913;BME280;33676;51.006;17.180;2023-08-08T07:30:21;99932.48;;;18.00;85.55
47913;BME280;33676;51.006;17.180;2023-08-08T07:32:49;99926.75;;;18.05;84.90
47913;BME280;33676;51.006;17.180;2023-08-08T07:35:18;99925.52;;;18.05;84.71
47913;BME280;33676;51.006;17.180;2023-08-08T07:37:46;99928.24;;;18.04;84.03
47913;BME280;33676;51.006;17.180;2023-08-08T07:40:17;99933.24;;;17.99;82.62
47913;BME280;33676;51.006;17.180;2023-08-08T07:42:49;99931.27;;;17.90;82.10
47913;BME280;33676;51.006;17.180;2023-08-08T07:45:18;99936.65;;;17.83;82.06
47913;BME280;33676;51.006;17.180;2023-08-08T07:47:46;99935.61;;;17.82;82.65
47913;BME280;33676;51.006;17.180;2023-08-08T07:50:15;99934.95;;;17.84;82.47
47913;BME280;33676;51.006;17.180;2023-08-08T07:52:43;99935.27;;;17.90;82.72
47913;BME280;33676;51.006;17.180;2023-08-08T07:55:12;99942.89;;;17.96;80.73
47913;BME280;33676;51.006;17.180;2023-08-08T07:57:40;99934.30;;;17.95;81.10
47913;BME280;33676;51.006;17.180;2023-08-08T08:00:10;99935.06;;;17.96;80.93
47913;BME280;33676;51.006;17.180;2023-08-08T08:02:42;99943.11;;;17.97;79.90
47913;BME280;33676;51.006;17.180;2023-08-08T08:05:13;99937.48;;;17.96;79.98
47913;BME280;33676;51.006;17.180;2023-08-08T08:07:42;99940.45;;;18.00;80.17
47913;BME280;33676;51.006;17.180;2023-08-08T08:10:12;99931.66;;;18.10;80.72
47913;BME280;33676;51.006;17.180;2023-08-08T08:12:42;99939.89;;;18.21;79.87
47913;BME280;33676;51.006;17.180;2023-08-08T08:15:11;99936.42;;;18.31;78.91
47913;BME280;33676;51.006;17.180;2023-08-08T08:17:39;99930.98;;;18.45;78.05
47913;BME280;33676;51.006;17.180;2023-08-08T08:20:09;99934.46;;;18.60;78.05
47913;BME280;33676;51.006;17.180;2023-08-08T08:22:40;99931.13;;;18.75;77.15
47913;BME280;33676;51.006;17.180;2023-08-08T08:25:09;99935.83;;;18.91;77.02
47913;BME280;33676;51.006;17.180;2023-08-08T08:27:38;99942.00;;;19.07;74.81
47913;BME280;33676;51.006;17.180;2023-08-08T08:30:07;99936.19;;;19.17;73.35
47913;BME280;33676;51.006;17.180;2023-08-08T08:32:42;99931.17;;;19.27;73.98
47913;BME280;33676;51.006;17.180;2023-08-08T08:35:10;99933.85;;;19.31;71.87
47913;BME280;33676;51.006;17.180;2023-08-08T08:37:41;99941.41;;;19.30;71.09
47913;BME280;33676;51.006;17.180;2023-08-08T08:40:10;99932.67;;;19.32;70.34
47913;BME280;33676;51.006;17.180;2023-08-08T08:42:39;99922.37;;;19.38;71.06
47913;BME280;33676;51.006;17.180;2023-08-08T08:45:09;99924.65;;;19.47;70.90
47913;BME280;33676;51.006;17.180;2023-08-08T08:47:40;99919.54;;;19.54;71.12
47913;BME280;33676;51.006;17.180;2023-08-08T08:50:10;99928.51;;;19.61;70.15
47913;BME280;33676;51.006;17.180;2023-08-08T08:52:39;99919.34;;;19.67;71.19
47913;BME280;33676;51.006;17.180;2023-08-08T08:55:08;99924.02;;;19.71;70.22
47913;BME280;33676;51.006;17.180;2023-08-08T08:57:36;99922.64;;;19.73;70.26
47913;BME280;33676;51.006;17.180;2023-08-08T09:00:06;99923.86;;;19.78;70.63
47913;BME280;33676;51.006;17.180;2023-08-08T09:02:36;99929.92;;;19.79;69.54
47913;BME280;33676;51.006;17.180;2023-08-08T09:05:06;99933.50;;;19.74;68.57
47913;BME280;33676;51.006;17.180;2023-08-08T09:07:35;99944.27;;;19.71;67.84
47913;BME280;33676;51.006;17.180;2023-08-08T09:10:05;99939.85;;;19.68;67.47
47913;BME280;33676;51.006;17.180;2023-08-08T09:12:34;99937.90;;;19.69;68.06
47913;BME280;33676;51.006;17.180;2023-08-08T09:15:03;99932.19;;;19.79;68.54
47913;BME280;33676;51.006;17.180;2023-08-08T09:17:32;99932.19;;;19.94;68.06
47913;BME280;33676;51.006;17.180;2023-08-08T09:20:17;99928.16;;;20.03;68.19
47913;BME280;33676;51.006;17.180;2023-08-08T09:22:45;99920.52;;;20.22;68.47
47913;BME280;33676;51.006;17.180;2023-08-08T09:25:14;99924.59;;;20.45;68.27
47913;BME280;33676;51.006;17.180;2023-08-08T09:27:44;99915.43;;;20.56;67.62
47913;BME280;33676;51.006;17.180;2023-08-08T09:30:13;99917.05;;;20.59;68.29
47913;BME280;33676;51.006;17.180;2023-08-08T09:32:43;99916.80;;;20.64;68.67
47913;BME280;33676;51.006;17.180;2023-08-08T09:35:15;99934.11;;;20.65;67.92
47913;BME280;33676;51.006;17.180;2023-08-08T09:37:44;99932.09;;;20.64;67.66
47913;BME280;33676;51.006;17.180;2023-08-08T09:40:12;99933.82;;;20.65;67.60
47913;BME280;33676;51.006;17.180;2023-08-08T09:42:41;99932.84;;;20.64;66.96
47913;BME280;33676;51.006;17.180;2023-08-08T09:45:11;99930.18;;;20.65;67.01
47913;BME280;33676;51.006;17.180;2023-08-08T09:47:40;99932.96;;;20.76;67.35
47913;BME280;33676;51.006;17.180;2023-08-08T09:50:10;99935.96;;;20.91;67.66
47913;BME280;33676;51.006;17.180;2023-08-08T09:52:38;99932.58;;;21.15;68.16
47913;BME280;33676;51.006;17.180;2023-08-08T09:55:08;99933.23;;;21.44;68.19
47913;BME280;33676;51.006;17.180;2023-08-08T09:57:40;99934.87;;;21.63;67.43
47913;BME280;33676;51.006;17.180;2023-08-08T10:00:11;99933.27;;;21.71;66.71
47913;BME280;33676;51.006;17.180;2023-08-08T10:02:45;99923.35;;;21.68;66.97
47913;BME280;33676;51.006;17.180;2023-08-08T10:05:15;99926.27;;;21.58;66.08
47913;BME280;33676;51.006;17.180;2023-08-08T10:07:45;99932.17;;;21.41;64.75
47913;BME280;33676;51.006;17.180;2023-08-08T10:10:14;99931.98;;;21.21;64.77
47913;BME280;33676;51.006;17.180;2023-08-08T10:12:43;99928.83;;;21.02;65.12
47913;BME280;33676;51.006;17.180;2023-08-08T10:15:11;99929.11;;;20.90;65.71
47913;BME280;33676;51.006;17.180;2023-08-08T10:17:41;99931.27;;;20.83;66.18
47913;BME280;33676;51.006;17.180;2023-08-08T10:20:11;99941.20;;;20.74;66.04
47913;BME280;33676;51.006;17.180;2023-08-08T10:22:45;99932.60;;;20.61;66.06
47913;BME280;33676;51.006;17.180;2023-08-08T10:25:33;99938.42;;;20.44;65.81
47913;BME280;33676;51.006;17.180;2023-08-08T10:28:10;99940.21;;;20.26;65.97
47913;BME280;33676;51.006;17.180;2023-08-08T10:30:57;99931.06;;;20.11;65.87
47913;BME280;33676;51.006;17.180;2023-08-08T10:33:33;99927.80;;;20.02;66.20
47913;BME280;33676;51.006;17.180;2023-08-08T10:36:07;99926.94;;;19.96;66.22
47913;BME280;33676;51.006;17.180;2023-08-08T10:38:44;99930.88;;;19.95;65.97
47913;BME280;33676;51.006;17.180;2023-08-08T10:41:17;99933.05;;;19.94;66.16
47913;BME280;33676;51.006;17.180;2023-08-08T10:43:53;99930.75;;;19.94;65.94
47913;BME280;33676;51.006;17.180;2023-08-08T10:46:30;99930.14;;;19.95;66.22
47913;BME280;33676;51.006;17.180;2023-08-08T10:49:01;99925.40;;;20.03;66.35
47913;BME280;33676;51.006;17.180;2023-08-08T10:51:39;99923.80;;;20.19;66.49
47913;BME280;33676;51.006;17.180;2023-08-08T10:54:16;99926.27;;;20.41;66.33
47913;BME280;33676;51.006;17.180;2023-08-08T10:56:51;99925.14;;;20.72;66.59
47913;BME280;33676;51.006;17.180;2023-08-08T10:59:22;99922.17;;;21.01;66.71
47913;BME280;33676;51.006;17.180;2023-08-08T11:01:52;99912.23;;;21.16;66.25
47913;BME280;33676;51.006;17.180;2023-08-08T11:04:23;99914.38;;;21.20;65.77
47913;BME280;33676;51.006;17.180;2023-08-08T11:06:54;99912.08;;;21.20;65.21
47913;BME280;33676;51.006;17.180;2023-08-08T11:09:23;99929.17;;;21.21;64.78
47913;BME280;33676;51.006;17.180;2023-08-08T11:11:51;99915.64;;;21.28;65.06
47913;BME280;33676;51.006;17.180;2023-08-08T11:14:22;99910.63;;;21.40;65.32
47913;BME280;33676;51.006;17.180;2023-08-08T11:16:52;99910.63;;;21.43;65.55
47913;BME280;33676;51.006;17.180;2023-08-08T11:19:21;99912.69;;;21.41;65.44
47913;BME280;33676;51.006;17.180;2023-08-08T11:21:51;99908.05;;;21.42;65.24
47913;BME280;33676;51.006;17.180;2023-08-08T11:24:20;99906.62;;;21.42;65.29
47913;BME280;33676;51.006;17.180;2023-08-08T11:26:49;99906.38;;;21.44;65.49
47913;BME280;33676;51.006;17.180;2023-08-08T11:29:19;99915.47;;;21.58;65.25
47913;BME280;33676;51.006;17.180;2023-08-08T11:31:48;99908.48;;;21.66;65.49
47913;BME280;33676;51.006;17.180;2023-08-08T11:34:16;99906.33;;;21.74;65.71
47913;BME280;33676;51.006;17.180;2023-08-08T11:36:46;99906.18;;;21.85;65.48
47913;BME280;33676;51.006;17.180;2023-08-08T11:39:18;99902.52;;;21.95;64.95
47913;BME280;33676;51.006;17.180;2023-08-08T11:41:49;99903.57;;;22.22;65.64
47913;BME280;33676;51.006;17.180;2023-08-08T11:44:19;99909.56;;;22.36;65.64
47913;BME280;33676;51.006;17.180;2023-08-08T11:46:48;99909.63;;;22.33;65.03
47913;BME280;33676;51.006;17.180;2023-08-08T11:49:17;99905.10;;;22.24;65.06
47913;BME280;33676;51.006;17.180;2023-08-08T11:51:46;99905.50;;;22.21;65.53
47913;BME280;33676;51.006;17.180;2023-08-08T11:54:15;99899.43;;;22.28;65.28
47913;BME280;33676;51.006;17.180;2023-08-08T11:56:44;99897.18;;;22.33;64.69
47913;BME280;33676;51.006;17.180;2023-08-08T11:59:12;99898.64;;;22.48;64.77
47913;BME280;33676;51.006;17.180;2023-08-08T12:01:43;99889.89;;;22.92;65.48
47913;BME280;33676;51.006;17.180;2023-08-08T12:04:12;99899.21;;;23.17;64.91
47913;BME280;33676;51.006;17.180;2023-08-08T12:06:41;99907.38;;;23.12;62.96
47913;BME280;33676;51.006;17.180;2023-08-08T12:09:13;99899.54;;;23.03;62.86
47913;BME280;33676;51.006;17.180;2023-08-08T12:11:42;99907.92;;;23.00;63.63
47913;BME280;33676;51.006;17.180;2023-08-08T12:14:13;99905.05;;;23.03;63.54
47913;BME280;33676;51.006;17.180;2023-08-08T12:16:43;99917.11;;;23.00;62.90
47913;BME280;33676;51.006;17.180;2023-08-08T12:19:12;99906.67;;;23.23;63.41
47913;BME280;33676;51.006;17.180;2023-08-08T12:21:42;99913.14;;;23.70;63.70
47913;BME280;33676;51.006;17.180;2023-08-08T12:24:11;99913.89;;;23.86;62.98
47913;BME280;33676;51.006;17.180;2023-08-08T12:26:39;99901.89;;;24.05;62.97
47913;BME280;33676;51.006;17.180;2023-08-08T12:29:08;99901.41;;;24.24;63.66
47913;BME280;33676;51.006;17.180;2023-08-08T12:31:36;99902.06;;;24.69;64.24
47913;BME280;33676;51.006;17.180;2023-08-08T12:34:05;99900.24;;;25.23;64.42
47913;BME280;33676;51.006;17.180;2023-08-08T12:36:34;99894.67;;;25.67;64.45
47913;BME280;33676;51.006;17.180;2023-08-08T12:39:03;99901.89;;;26.06;62.97
47913;BME280;33676;51.006;17.180;2023-08-08T12:41:31;99899.91;;;26.39;61.81
47913;BME280;33676;51.006;17.180;2023-08-08T12:44:00;99895.70;;;26.66;60.95
47913;BME280;33676;51.006;17.180;2023-08-08T12:46:29;99896.81;;;26.70;60.36
47913;BME280;33676;51.006;17.180;2023-08-08T12:48:57;99898.56;;;26.58;59.71
47913;BME280;33676;51.006;17.180;2023-08-08T12:51:26;99892.36;;;26.24;59.69
47913;BME280;33676;51.006;17.180;2023-08-08T12:53:54;99891.11;;;25.90;59.34
47913;BME280;33676;51.006;17.180;2023-08-08T12:56:23;99893.59;;;25.60;59.56
47913;BME280;33676;51.006;17.180;2023-08-08T13:32:13;99874.69;;;23.15;60.73
47913;BME280;33676;51.006;17.180;2023-08-08T13:34:42;99872.83;;;22.90;61.06
47913;BME280;33676;51.006;17.180;2023-08-08T13:37:11;99875.03;;;22.71;61.29
47913;BME280;33676;51.006;17.180;2023-08-08T13:39:45;99873.73;;;22.52;61.36
47913;BME280;33676;51.006;17.180;2023-08-08T13:42:47;99873.21;;;22.36;61.70